createdAt,value
2023-04-09T00:00:30.851Z,2.40
2023-04-09T00:02:58.720Z,2.25
2023-04-09T00:05:26.385Z,1.65
2023-04-09T00:07:53.994Z,3.85
2023-04-09T00:10:21.678Z,1.88
2023-04-09T00:12:50.592Z,1.85
2023-04-09T00:15:29.956Z,1.75
2023-04-09T00:17:58.677Z,2.28
2023-04-09T00:20:26.420Z,2.33
2023-04-09T00:22:54.098Z,2.33
2023-04-09T00:25:21.740Z,2.75
2023-04-09T00:27:51.078Z,5.85
2023-04-09T00:30:18.665Z,2.65
2023-04-09T00:32:46.324Z,2.17
2023-04-09T00:35:14.122Z,2.13
2023-04-09T00:37:41.792Z,3.00
2023-04-09T00:40:09.699Z,2.22
2023-04-09T00:42:38.404Z,3.10
2023-04-09T00:45:08.210Z,2.25
2023-04-09T00:47:36.081Z,3.03
2023-04-09T00:50:04.829Z,2.63
2023-04-09T00:52:32.467Z,0.98
2023-04-09T00:55:00.582Z,2.45
2023-04-09T00:57:28.772Z,3.13
2023-04-09T00:59:56.546Z,4.40
2023-04-09T01:02:25.717Z,3.13
2023-04-09T01:04:53.424Z,1.80
2023-04-09T01:07:26.110Z,2.70
2023-04-09T01:09:56.914Z,3.17
2023-04-09T01:12:32.636Z,2.42
2023-04-09T01:15:04.395Z,3.38
2023-04-09T01:17:35.629Z,1.83
2023-04-09T01:20:05.018Z,3.53
2023-04-09T01:22:40.884Z,4.60
2023-04-09T01:25:13.947Z,2.58
2023-04-09T01:27:48.120Z,3.85
2023-04-09T01:30:17.698Z,4.53
2023-04-09T01:32:45.933Z,3.45
2023-04-09T01:35:13.724Z,1.63
2023-04-09T01:37:41.734Z,3.30
2023-04-09T01:40:09.803Z,3.05
2023-04-09T01:42:38.226Z,1.45
2023-04-09T01:45:06.977Z,4.88
2023-04-09T01:47:36.194Z,2.80
2023-04-09T01:50:03.940Z,2.10
2023-04-09T01:52:31.670Z,2.28
2023-04-09T01:54:59.311Z,3.83
2023-04-09T01:57:26.892Z,3.17
2023-04-09T01:59:55.531Z,3.90
2023-04-09T02:02:29.568Z,3.70
2023-04-09T02:04:59.654Z,3.05
2023-04-09T02:07:30.667Z,3.63
2023-04-09T02:09:58.741Z,2.40
2023-04-09T02:12:26.701Z,3.67
2023-04-09T02:14:54.713Z,2.25
2023-04-09T02:17:22.401Z,2.35
2023-04-09T02:19:50.064Z,5.28
2023-04-09T02:22:19.105Z,3.97
2023-04-09T02:24:47.697Z,2.90
2023-04-09T02:27:15.391Z,2.63
2023-04-09T02:29:43.281Z,9.23
2023-04-09T02:32:10.871Z,3.28
2023-04-09T02:34:38.453Z,1.95
2023-04-09T02:37:06.054Z,4.70
2023-04-09T02:39:35.091Z,2.92
2023-04-09T02:42:03.386Z,3.45
2023-04-09T02:44:30.963Z,2.67
2023-04-09T02:46:58.569Z,4.30
2023-04-09T02:49:26.248Z,2.88
2023-04-09T02:51:53.860Z,4.38
2023-04-09T02:54:21.676Z,2.80
2023-04-09T02:56:50.755Z,4.35
2023-04-09T02:59:18.338Z,2.60
2023-04-09T03:01:46.113Z,4.22
2023-04-09T03:04:13.971Z,3.25
2023-04-09T03:06:41.657Z,3.97
2023-04-09T03:09:09.190Z,3.67
2023-04-09T03:11:36.854Z,2.40
2023-04-09T03:14:05.785Z,4.97
2023-04-09T03:16:33.375Z,2.42
2023-04-09T03:19:00.961Z,6.22
2023-04-09T03:21:28.656Z,2.40
2023-04-09T03:23:56.379Z,3.95
2023-04-09T03:26:24.042Z,2.58
2023-04-09T03:28:51.875Z,10.10
2023-04-09T03:31:21.040Z,7.13
2023-04-09T03:33:49.057Z,3.88
2023-04-09T03:36:16.706Z,3.25
2023-04-09T03:39:00.355Z,5.00
2023-04-09T03:41:39.986Z,4.10
2023-04-09T03:44:12.091Z,4.40
2023-04-09T03:46:59.801Z,4.10
2023-04-09T03:49:28.839Z,5.07
2023-04-09T03:52:01.948Z,4.13
2023-04-09T03:54:37.291Z,4.57
2023-04-09T03:57:09.889Z,5.93
2023-04-09T03:59:40.656Z,3.08
2023-04-09T04:02:09.788Z,4.35
2023-04-09T04:04:41.784Z,2.92
2023-04-09T04:07:11.450Z,7.30
2023-04-09T04:09:48.456Z,3.65
2023-04-09T04:12:18.295Z,3.92
2023-04-09T04:14:58.839Z,5.07
2023-04-09T04:17:35.097Z,5.35
2023-04-09T04:20:05.500Z,4.97
2023-04-09T04:22:39.252Z,3.95
2023-04-09T04:25:07.199Z,3.38
2023-04-09T04:27:34.777Z,3.72
2023-04-09T04:30:02.558Z,3.83
2023-04-09T04:32:43.909Z,5.95
2023-04-09T04:35:12.819Z,3.72
2023-04-09T04:37:41.679Z,3.30
2023-04-09T04:40:10.022Z,6.38
2023-04-09T04:42:42.071Z,4.50
2023-04-09T04:45:14.127Z,3.70
2023-04-09T04:47:53.161Z,3.35
2023-04-09T04:50:20.908Z,1.73
2023-04-09T04:52:56.776Z,3.53
2023-04-09T04:55:29.033Z,6.55
2023-04-09T04:57:56.988Z,7.90
2023-04-09T05:00:28.553Z,1.80
2023-04-09T05:03:03.126Z,6.47
2023-04-09T05:05:43.444Z,3.53
2023-04-09T05:08:11.027Z,4.82
2023-04-09T05:10:41.492Z,3.70
2023-04-09T05:13:09.098Z,4.70
2023-04-09T05:15:40.730Z,8.13
2023-04-09T05:18:10.964Z,9.70
2023-04-09T05:20:39.060Z,6.18
2023-04-09T05:23:10.225Z,3.90
2023-04-09T05:25:42.005Z,6.97
2023-04-09T05:28:17.561Z,7.63
2023-04-09T05:30:50.490Z,6.07
2023-04-09T05:33:20.922Z,7.85
2023-04-09T05:35:48.766Z,2.35
2023-04-09T05:38:16.486Z,5.15
2023-04-09T05:40:46.193Z,5.28
2023-04-09T05:43:14.477Z,5.28
2023-04-09T05:45:44.516Z,6.22
2023-04-09T05:48:12.148Z,5.97
2023-04-09T05:50:54.116Z,5.75
2023-04-09T05:53:25.302Z,5.40
2023-04-09T05:55:53.052Z,6.55
2023-04-09T05:58:25.937Z,2.22
2023-04-09T06:00:53.980Z,6.55
2023-04-09T06:03:21.653Z,5.93
2023-04-09T06:05:50.765Z,3.45
2023-04-09T06:08:18.370Z,5.75
2023-04-09T06:10:45.955Z,5.05
2023-04-09T06:13:13.538Z,5.22
2023-04-09T06:15:42.639Z,4.25
2023-04-09T06:18:10.440Z,5.70
2023-04-09T06:20:37.982Z,7.50
2023-04-09T06:23:07.027Z,8.05
2023-04-09T06:25:34.590Z,10.35
2023-04-09T06:28:03.020Z,7.35
2023-04-09T06:30:31.826Z,5.35
2023-04-09T06:32:59.411Z,8.73
2023-04-09T06:35:27.082Z,6.18
2023-04-09T06:37:54.630Z,4.32
2023-04-09T06:40:23.625Z,6.78
2023-04-09T06:42:51.363Z,7.63
2023-04-09T06:45:24.861Z,5.30
2023-04-09T06:47:52.513Z,8.48
2023-04-09T06:50:20.134Z,8.35
2023-04-09T06:52:47.686Z,5.85
2023-04-09T06:55:15.557Z,7.47
2023-04-09T06:57:44.500Z,6.03
2023-04-09T07:00:12.442Z,8.50
2023-04-09T07:02:40.433Z,9.05
2023-04-09T07:05:08.987Z,7.30
2023-04-09T07:07:36.597Z,7.00
2023-04-09T07:10:04.215Z,8.88
2023-04-09T07:12:32.688Z,9.15
2023-04-09T07:15:01.983Z,6.85
2023-04-09T07:17:29.681Z,7.57
2023-04-09T07:19:57.286Z,7.47
2023-04-09T07:22:25.419Z,7.70
2023-04-09T07:24:55.073Z,6.75
2023-04-09T07:27:23.270Z,5.88
2023-04-09T07:29:51.059Z,9.02
2023-04-09T07:32:20.013Z,6.43
2023-04-09T07:34:47.595Z,4.32
2023-04-09T07:37:15.442Z,7.95
2023-04-09T07:39:43.590Z,6.20
2023-04-09T07:42:11.355Z,7.93
2023-04-09T07:44:39.544Z,8.32
2023-04-09T07:47:07.991Z,10.90
2023-04-09T07:49:38.100Z,7.28
2023-04-09T07:52:06.084Z,9.35
2023-04-09T07:54:33.958Z,12.00
2023-04-09T07:57:01.839Z,9.05
2023-04-09T07:59:29.690Z,9.75
2023-04-09T08:01:57.506Z,6.20
2023-04-09T08:04:25.386Z,6.00
2023-04-09T08:06:54.465Z,9.30
2023-04-09T08:09:22.349Z,9.60
2023-04-09T08:11:50.383Z,9.82
2023-04-09T08:14:18.435Z,7.43
2023-04-09T08:16:47.229Z,8.43
2023-04-09T08:19:16.293Z,8.40
2023-04-09T08:21:44.154Z,8.35
2023-04-09T08:24:13.459Z,7.13
2023-04-09T08:26:41.537Z,6.70
2023-04-09T08:29:09.978Z,11.50
2023-04-09T08:31:37.603Z,10.98
2023-04-09T08:34:05.225Z,9.00
2023-04-09T08:36:34.622Z,11.82
2023-04-09T08:39:02.276Z,12.10
2023-04-09T08:41:31.289Z,12.18
2023-04-09T08:43:59.903Z,15.32
2023-04-09T08:46:28.209Z,11.73
2023-04-09T08:48:56.362Z,12.25
2023-04-09T08:51:24.739Z,14.32
2023-04-09T08:53:56.454Z,13.20
2023-04-09T08:56:24.141Z,11.82
2023-04-09T08:58:53.498Z,15.00
2023-04-09T09:01:22.104Z,13.02
2023-04-09T09:03:54.286Z,14.73
2023-04-09T09:06:23.039Z,13.38
2023-04-09T09:09:00.902Z,12.02
2023-04-09T09:11:30.222Z,11.77
2023-04-09T09:14:03.413Z,11.68
2023-04-09T09:16:31.415Z,13.90
2023-04-09T09:18:59.271Z,13.27
2023-04-09T09:21:29.996Z,13.05
2023-04-09T09:23:58.175Z,15.75
2023-04-09T09:26:27.333Z,15.48
2023-04-09T09:28:55.364Z,15.65
2023-04-09T09:31:24.615Z,13.70
2023-04-09T09:33:52.293Z,13.02
2023-04-09T09:36:37.513Z,13.90
2023-04-09T09:39:09.987Z,13.60
2023-04-09T09:41:37.875Z,14.30
2023-04-09T09:44:07.179Z,13.73
2023-04-09T09:46:37.284Z,16.23
2023-04-09T09:49:04.899Z,15.77
2023-04-09T09:51:32.937Z,14.10
2023-04-09T09:54:00.957Z,13.80
2023-04-09T09:56:32.624Z,15.27
2023-04-09T09:59:07.339Z,17.42
2023-04-09T10:01:36.552Z,15.15
2023-04-09T10:04:06.703Z,14.52
2023-04-09T10:06:34.741Z,15.23
2023-04-09T10:09:06.287Z,15.30
2023-04-09T10:11:34.675Z,11.32
2023-04-09T10:14:02.767Z,11.82
2023-04-09T10:16:31.139Z,12.15
2023-04-09T10:19:01.363Z,13.15
2023-04-09T10:21:36.423Z,11.95
2023-04-09T10:24:07.707Z,12.25
2023-04-09T10:26:35.571Z,14.00
2023-04-09T10:29:08.177Z,12.80
2023-04-09T10:31:54.971Z,12.63
2023-04-09T10:34:24.921Z,11.07
2023-04-09T10:36:53.991Z,11.23
2023-04-09T10:39:21.726Z,13.05
2023-04-09T10:41:49.854Z,11.60
2023-04-09T10:44:24.444Z,10.88
2023-04-09T10:46:54.124Z,13.75
2023-04-09T10:49:22.517Z,11.98
2023-04-09T10:51:53.591Z,10.98
2023-04-09T10:54:39.742Z,10.20
2023-04-09T10:57:17.939Z,10.77
2023-04-09T10:59:46.715Z,12.05
2023-04-09T11:02:33.059Z,10.60
2023-04-09T11:05:04.592Z,11.77
2023-04-09T11:07:34.834Z,10.68
2023-04-09T11:10:02.397Z,11.75
2023-04-09T11:12:29.981Z,9.63
2023-04-09T11:14:57.580Z,10.93
2023-04-09T11:17:25.258Z,12.32
2023-04-09T11:19:53.058Z,10.68
2023-04-09T11:22:20.671Z,10.98
2023-04-09T11:24:50.877Z,13.48
2023-04-09T11:27:19.452Z,9.38
2023-04-09T11:29:47.179Z,12.55
2023-04-09T11:32:14.805Z,11.70
2023-04-09T11:34:42.365Z,11.23
2023-04-09T11:37:16.735Z,11.25
2023-04-09T11:39:45.037Z,10.07
2023-04-09T11:42:16.245Z,12.15
2023-04-09T11:44:45.731Z,13.40
2023-04-09T11:47:13.382Z,11.20
2023-04-09T11:49:41.582Z,10.77
2023-04-09T11:52:09.211Z,12.30
2023-04-09T11:54:37.219Z,10.77
2023-04-09T11:57:04.941Z,12.43
2023-04-09T11:59:33.988Z,12.00
2023-04-09T12:02:01.681Z,11.55
2023-04-09T12:04:29.382Z,10.10
2023-04-09T12:06:58.756Z,8.27
2023-04-09T12:09:26.386Z,9.40
2023-04-09T12:11:53.995Z,9.18
2023-04-09T12:14:22.628Z,10.13
2023-04-09T12:16:53.453Z,7.53
2023-04-09T12:19:22.758Z,7.95
2023-04-09T12:21:51.005Z,8.80
2023-04-09T12:24:19.650Z,6.07
2023-04-09T12:26:47.494Z,8.05
2023-04-09T12:29:15.790Z,6.60
2023-04-09T12:31:43.776Z,8.18
2023-04-09T12:34:13.322Z,6.13
2023-04-09T12:36:41.518Z,5.95
2023-04-09T12:39:09.704Z,6.13
2023-04-09T12:41:37.282Z,9.23
2023-04-09T12:44:05.072Z,5.43
2023-04-09T12:46:32.859Z,3.97
2023-04-09T12:49:00.869Z,4.65
2023-04-09T12:51:30.494Z,5.18
2023-04-09T12:53:58.183Z,4.30
2023-04-09T12:56:25.797Z,3.35
2023-04-09T12:58:54.058Z,5.72
2023-04-09T13:01:21.992Z,5.50
2023-04-09T13:03:49.777Z,5.93
2023-04-09T13:06:17.363Z,7.15
2023-04-09T13:08:46.583Z,6.97
2023-04-09T13:11:14.192Z,7.07
2023-04-09T13:13:42.703Z,7.28
2023-04-09T13:16:10.509Z,9.65
2023-04-09T13:18:38.095Z,8.20
2023-04-09T13:21:05.812Z,7.10
2023-04-09T13:23:33.414Z,8.20
2023-04-09T13:26:02.393Z,6.07
2023-04-09T13:28:29.968Z,6.63
2023-04-09T13:30:57.643Z,5.45
2023-04-09T13:33:25.234Z,6.07
2023-04-09T13:35:52.871Z,5.40
2023-04-09T13:38:20.572Z,5.68
2023-04-09T13:40:48.164Z,7.60
2023-04-09T13:43:17.107Z,4.38
2023-04-09T13:45:44.699Z,3.97
2023-04-09T13:48:15.430Z,4.43
2023-04-09T13:50:43.228Z,3.97
2023-04-09T13:53:10.953Z,6.47
2023-04-09T13:55:38.599Z,3.15
2023-04-09T13:58:06.362Z,5.47
2023-04-09T14:00:36.012Z,4.32
2023-04-09T14:03:04.032Z,3.25
2023-04-09T14:05:32.337Z,3.88
2023-04-09T14:07:59.918Z,1.42
2023-04-09T14:10:27.595Z,3.20
2023-04-09T14:12:55.304Z,1.85
2023-04-09T14:15:22.978Z,2.78
2023-04-09T14:17:51.926Z,3.55
2023-04-09T14:20:21.098Z,6.63
2023-04-09T14:22:49.461Z,3.50
2023-04-09T14:25:17.488Z,2.55
2023-04-09T14:27:46.348Z,4.40
2023-04-09T14:30:14.236Z,2.35
2023-04-09T14:32:43.147Z,1.85
2023-04-09T14:35:12.165Z,2.50
2023-04-09T14:37:40.983Z,2.78
2023-04-09T14:40:09.341Z,1.98
2023-04-09T14:42:36.911Z,2.83
2023-04-09T14:45:04.681Z,4.68
2023-04-09T14:47:32.348Z,3.38
2023-04-09T14:50:00.016Z,6.35
2023-04-09T14:52:30.420Z,3.28
2023-04-09T14:54:58.066Z,3.30
2023-04-09T14:57:25.777Z,2.30
2023-04-09T14:59:53.379Z,3.25
2023-04-09T15:02:21.039Z,2.97
2023-04-09T15:04:48.797Z,2.08
2023-04-09T15:07:16.422Z,1.10
2023-04-09T15:09:45.322Z,4.00
2023-04-09T15:12:12.901Z,1.83
2023-04-09T15:14:40.612Z,6.63
2023-04-09T15:17:08.158Z,2.28
2023-04-09T15:19:35.862Z,6.20
2023-04-09T15:22:03.416Z,3.50
2023-04-09T15:24:30.979Z,1.55
2023-04-09T15:26:59.947Z,2.85
2023-04-09T15:29:27.522Z,4.68
2023-04-09T15:31:55.175Z,2.72
2023-04-09T15:34:23.363Z,2.95
2023-04-09T15:36:50.928Z,2.30
2023-04-09T15:39:18.537Z,2.83
2023-04-09T15:41:46.468Z,6.05
2023-04-09T15:44:15.583Z,1.52
2023-04-09T15:46:43.180Z,0.60
2023-04-09T15:49:10.799Z,2.47
2023-04-09T15:51:38.428Z,1.95
2023-04-09T15:54:05.977Z,2.33
2023-04-09T15:56:35.940Z,1.75
2023-04-09T15:59:05.349Z,1.85
2023-04-09T16:01:34.646Z,0.90
2023-04-09T16:04:02.444Z,1.90
2023-04-09T16:06:30.162Z,3.55
2023-04-09T16:08:57.842Z,1.42
2023-04-09T16:11:25.986Z,2.58
2023-04-09T16:13:53.622Z,0.85
2023-04-09T16:16:21.797Z,1.67
2023-04-09T16:18:51.016Z,1.55
2023-04-09T16:21:18.846Z,6.72
2023-04-09T16:23:46.639Z,5.70
2023-04-09T16:26:14.235Z,2.33
2023-04-09T16:28:41.816Z,1.02
2023-04-09T16:31:09.415Z,1.52
2023-04-09T16:33:37.006Z,0.88
2023-04-09T16:36:06.426Z,1.42
2023-04-09T16:38:34.050Z,2.05
2023-04-09T16:41:01.645Z,2.42
2023-04-09T16:43:29.209Z,1.63
2023-04-09T16:45:57.140Z,3.17
2023-04-09T16:48:24.790Z,2.08
2023-04-09T16:50:52.370Z,1.80
2023-04-09T16:53:21.381Z,1.77
2023-04-09T16:55:49.110Z,0.80
2023-04-09T16:58:16.673Z,2.25
2023-04-09T17:00:45.464Z,1.80
2023-04-09T17:03:14.780Z,2.20
2023-04-09T17:05:42.452Z,1.80
2023-04-09T17:08:10.067Z,4.10
2023-04-09T17:10:38.987Z,1.27
2023-04-09T17:13:06.577Z,2.53
2023-04-09T17:15:34.135Z,2.72
2023-04-09T17:18:02.286Z,3.70
2023-04-09T17:20:30.366Z,1.23
2023-04-09T17:22:57.942Z,1.20
2023-04-09T17:25:25.760Z,1.30
2023-04-09T17:27:54.810Z,2.78
2023-04-09T17:30:22.510Z,0.65
2023-04-09T17:32:51.074Z,1.98
2023-04-09T17:35:18.920Z,1.17
2023-04-09T17:37:46.609Z,2.72
2023-04-09T17:40:15.093Z,0.98
2023-04-09T17:42:42.635Z,0.77
2023-04-09T17:45:12.213Z,1.75
2023-04-09T17:47:40.732Z,0.95
2023-04-09T17:50:08.952Z,1.13
2023-04-09T17:52:37.573Z,2.15
2023-04-09T17:55:08.765Z,1.42
2023-04-09T17:57:36.741Z,1.08
2023-04-09T18:00:05.187Z,1.50
2023-04-09T18:02:34.690Z,3.83
2023-04-09T18:05:02.707Z,2.17
2023-04-09T18:07:33.198Z,1.63
2023-04-09T18:10:01.024Z,0.93
2023-04-09T18:12:28.635Z,3.60
2023-04-09T18:14:56.318Z,1.05
2023-04-09T18:17:26.126Z,0.90
2023-04-09T18:19:58.133Z,0.55
2023-04-09T18:22:26.129Z,1.13
2023-04-09T18:24:54.136Z,1.88
2023-04-09T18:27:22.200Z,2.72
2023-04-09T18:29:50.460Z,0.93
2023-04-09T18:32:19.492Z,1.35
2023-04-09T18:34:47.617Z,0.70
2023-04-09T18:37:17.206Z,6.63
2023-04-09T18:39:44.818Z,1.77
2023-04-09T18:42:12.373Z,1.02
2023-04-09T18:44:40.034Z,1.08
2023-04-09T18:47:09.152Z,1.05
2023-04-09T18:49:36.806Z,0.50
2023-04-09T18:52:05.458Z,0.65
2023-04-09T18:54:34.907Z,0.68
2023-04-09T18:57:04.063Z,1.58
2023-04-09T18:59:31.705Z,2.45
2023-04-09T19:01:59.596Z,0.98
2023-04-09T19:04:28.142Z,0.60
2023-04-09T19:06:55.852Z,1.30
2023-04-09T19:09:23.445Z,1.67
2023-04-09T19:11:52.440Z,1.92
2023-04-09T19:14:20.032Z,1.17
2023-04-09T19:16:47.635Z,1.52
2023-04-09T19:19:15.207Z,1.65
2023-04-09T19:21:42.783Z,0.40
2023-04-09T19:24:10.349Z,1.85
2023-04-09T19:26:38.806Z,0.85
2023-04-09T19:29:07.773Z,1.75
2023-04-09T19:31:35.370Z,0.60
2023-04-09T19:34:03.006Z,1.23
2023-04-09T19:36:31.943Z,0.90
2023-04-09T19:38:59.527Z,1.50
2023-04-09T19:41:27.161Z,1.50
2023-04-09T19:43:54.775Z,1.83
2023-04-09T19:46:23.754Z,0.98
2023-04-09T19:48:51.507Z,1.55
2023-04-09T19:51:20.025Z,1.02
2023-04-09T19:53:47.913Z,2.25
2023-04-09T19:56:15.725Z,0.93
2023-04-09T19:58:44.793Z,0.85
2023-04-09T20:01:12.510Z,6.15
2023-04-09T20:03:41.528Z,0.90
2023-04-09T20:06:10.285Z,1.65
2023-04-09T20:08:38.339Z,1.00
2023-04-09T20:11:06.764Z,0.68
2023-04-09T20:13:34.358Z,0.85
2023-04-09T20:16:02.210Z,0.75
2023-04-09T20:18:29.855Z,2.05
2023-04-09T20:20:58.778Z,2.80
2023-04-09T20:23:26.324Z,2.03
2023-04-09T20:25:54.873Z,0.98
2023-04-09T20:28:22.995Z,1.58
2023-04-09T20:30:50.653Z,2.85
2023-04-09T20:33:18.531Z,1.05
2023-04-09T20:35:46.354Z,0.70
2023-04-09T20:38:15.519Z,1.13
2023-04-09T20:40:43.143Z,1.60
2023-04-09T20:43:10.815Z,2.33
2023-04-09T20:45:38.447Z,3.22
2023-04-09T20:48:06.220Z,2.28
2023-04-09T20:50:33.892Z,0.63
2023-04-09T20:53:01.478Z,1.08
2023-04-09T20:55:30.619Z,2.58
2023-04-09T20:57:58.365Z,0.70
2023-04-09T21:00:26.018Z,1.25
2023-04-09T21:02:54.007Z,1.30
2023-04-09T21:05:24.004Z,1.45
2023-04-09T21:07:52.020Z,1.40
2023-04-09T21:10:19.614Z,1.35
2023-04-09T21:12:48.549Z,2.13
2023-04-09T21:15:16.304Z,1.15
2023-04-09T21:17:43.915Z,0.95
2023-04-09T21:20:12.036Z,1.85
2023-04-09T21:22:39.609Z,1.77
2023-04-09T21:25:07.665Z,1.05
2023-04-09T21:27:35.332Z,1.90
2023-04-09T21:30:04.582Z,4.10
2023-04-09T21:32:32.622Z,1.73
2023-04-09T21:35:00.359Z,0.77
2023-04-09T21:37:28.880Z,2.60
2023-04-09T21:39:56.483Z,1.02
2023-04-09T21:42:24.058Z,1.30
2023-04-09T21:44:51.611Z,1.23
2023-04-09T21:47:20.837Z,1.13
2023-04-09T21:49:50.158Z,0.65
2023-04-09T21:52:17.735Z,0.60
2023-04-09T21:54:45.443Z,1.98
2023-04-09T21:57:13.049Z,0.50
2023-04-09T21:59:41.236Z,1.27
2023-04-09T22:02:09.724Z,1.10
2023-04-09T22:04:42.346Z,1.75
2023-04-09T22:07:10.345Z,1.27
2023-04-09T22:09:37.964Z,0.93
2023-04-09T22:12:05.755Z,0.47
2023-04-09T22:14:33.420Z,0.60
2023-04-09T22:17:01.816Z,1.23
2023-04-09T22:19:30.048Z,0.57
2023-04-09T22:21:59.290Z,1.30
2023-04-09T22:24:29.633Z,1.25
2023-04-09T22:26:58.825Z,2.47
2023-04-09T22:29:26.886Z,1.73
2023-04-09T22:31:54.472Z,2.25
2023-04-09T22:34:22.349Z,1.05
2023-04-09T22:36:49.978Z,1.13
2023-04-09T22:39:18.948Z,1.23
2023-04-09T22:41:46.541Z,1.77
2023-04-09T22:44:14.152Z,1.45
2023-04-09T22:46:42.115Z,0.93
2023-04-09T22:49:09.894Z,1.27
2023-04-09T22:51:38.957Z,1.20
2023-04-09T22:54:07.807Z,1.75
2023-04-09T22:56:37.693Z,2.55
2023-04-09T22:59:06.076Z,1.27
2023-04-09T23:01:33.802Z,1.40
2023-04-09T23:04:01.511Z,1.98
2023-04-09T23:06:30.890Z,1.10
2023-04-09T23:08:59.725Z,1.10
2023-04-09T23:11:27.647Z,2.42
2023-04-09T23:13:56.584Z,4.20
2023-04-09T23:16:24.196Z,1.30
2023-04-09T23:18:51.909Z,1.33
2023-04-09T23:21:19.636Z,2.65
2023-04-09T23:23:47.214Z,1.00
2023-04-09T23:26:14.812Z,1.45
2023-04-09T23:28:42.354Z,1.58
2023-04-09T23:31:11.426Z,1.75
2023-04-09T23:33:39.013Z,1.48
2023-04-09T23:36:07.060Z,3.92
2023-04-09T23:38:34.657Z,3.15
2023-04-09T23:41:02.230Z,1.23
2023-04-09T23:43:29.817Z,2.15
2023-04-09T23:45:57.396Z,1.33
2023-04-09T23:48:26.419Z,1.33
2023-04-09T23:50:53.962Z,1.08
2023-04-09T23:53:21.530Z,1.38
2023-04-09T23:55:50.101Z,2.08
2023-04-09T23:58:17.707Z,1.33
